Time;durP1;ratioP1;P1;durP2;ratioP2;P2;SDS_P1;SDS_P2;PMS_P1;PMS_P2;Temp;Humidity;BMP_temperature;BMP_pressure;BME280_temperature;BME280_humidity;BME280_pressure;Samples;Min_cycle;Max_cycle;Signal;HPM_P1;HPM_P2
2022/02/10 00:03:44;;;;;;;;;;;;;;;-144.99;100.00;52631.53;5067552;28;20566;-61
2022/02/10 00:06:37;;;;;;;;;;;;;;;-144.99;100.00;52641.72;5068395;28;20072;-59
2022/02/10 00:14:55;;;;;;;;;;;;;;;-144.99;100.00;52625.44;5067782;28;20103;-62
2022/02/10 00:17:36;;;;;;;;;;;;;;;-144.99;100.00;52643.78;5071545;28;20336;-61
2022/02/10 00:20:16;;;;;;;;;;;;;;;-144.99;100.00;52680.47;5071318;28;19974;-61
2022/02/10 00:23:04;;;;;;;;;;;;;;;-144.99;100.00;52592.81;5071178;28;20000;-61
2022/02/10 00:36:38;;;;;;;;;;;;;;;-144.99;100.00;52611.16;5066769;28;20077;-62
2022/02/10 00:39:20;;;;;;;;;;;;;;;-144.99;100.00;52635.63;5071077;28;20220;-61
2022/02/10 00:41:48;;;;;;;;;;;;;;;-144.99;100.00;52619.31;5079277;28;20014;-61
2022/02/10 00:44:14;;;;;;;;;;;;;;;-144.99;100.00;52635.63;5070688;28;19995;-60
2022/02/10 00:46:41;;;;;;;;;;;;;;;-144.99;100.00;52643.78;5070983;28;19983;-64
2022/02/10 00:49:08;;;;;;;;;;;;;;;-144.99;100.00;52651.94;5071366;28;19984;-62
2022/02/10 00:51:34;;;;;;;;;;;;;;;-144.99;100.00;52647.84;5071075;28;20401;-63
2022/02/10 00:54:01;;;;;;;;;;;;;;;-144.99;100.00;52651.94;5070148;28;19984;-64
2022/02/10 00:56:28;;;;;;;;;;;;;;;-144.99;100.00;52631.53;5071504;28;19978;-64
2022/02/10 00:59:08;;;;;;;;;;;;;;;-144.99;100.00;52611.16;5071141;28;20011;-65
2022/02/10 01:07:07;;;;;;;;;;;;;;;-144.99;100.00;52619.31;5049712;28;19978;-60
2022/02/10 01:12:32;;;;;;;;;;;;;;;-144.99;100.00;52643.78;5082614;28;19995;-61
2022/02/10 01:31:26;;;;;;;;;;;;;;;-144.99;100.00;52594.84;5070431;28;20134;-60
2022/02/10 01:33:53;;;;;;;;;;;;;;;-144.99;100.00;52594.84;5070426;28;20032;-61
2022/02/10 01:36:19;;;;;;;;;;;;;;;-144.99;100.00;52627.47;5070099;28;20065;-62
2022/02/10 01:38:46;;;;;;;;;;;;;;;-144.99;100.00;52621.34;5070314;28;19985;-62
2022/02/10 01:41:41;;;;;;;;;;;;;;;-144.99;100.00;52629.50;5066132;28;19997;-62
2022/02/10 01:58:06;;;;;;;;;;;;;;;-144.99;100.00;52619.31;5046519;28;20029;-62
2022/02/10 02:03:21;;;;;;;;;;;;;;;-144.99;100.00;52607.09;5070202;28;20040;-62
2022/02/10 02:05:52;;;;;;;;;;;;;;;-144.99;100.00;52625.44;5069511;28;19971;-64
2022/02/10 02:08:24;;;;;;;;;;;;;;;-144.99;100.00;52598.94;5069434;28;19975;-63
2022/02/10 02:10:50;;;;;;;;;;;;;;;-144.99;100.00;52607.09;5070236;28;19996;-64
2022/02/10 02:13:17;;;;;;;;;;;;;;;-144.99;100.00;52623.38;5069804;28;19994;-64
2022/02/10 02:15:43;;;;;;;;;;;;;;;-144.99;100.00;52627.47;5069885;28;19978;-64
2022/02/10 02:18:09;;;;;;;;;;;;;;;-144.99;100.00;52676.38;5069507;28;20081;-65
2022/02/10 02:20:37;;;;;;;;;;;;;;;-144.99;100.00;52615.25;5068984;28;19972;-64
2022/02/10 02:23:05;;;;;;;;;;;;;;;-144.99;100.00;52623.38;5079898;28;20427;-64
2022/02/10 02:25:32;;;;;;;;;;;;;;;-144.99;100.00;52590.78;5069349;28;20079;-65
2022/02/10 02:27:59;;;;;;;;;;;;;;;-144.99;100.00;52621.34;5068785;28;19978;-61
2022/02/10 02:30:33;;;;;;;;;;;;;;;-144.99;100.00;52647.84;5067100;28;20368;-60
2022/02/10 02:33:32;;;;;;;;;;;;;;;-144.99;100.00;52649.88;5069825;28;19993;-61
2022/02/10 02:39:15;;;;;;;;;;;;;;;-144.99;100.00;52647.84;5049366;28;20481;-62
2022/02/10 03:06:25;;;;;;;;;;;;;;;-144.99;100.00;52607.09;5064447;28;19979;-65
2022/02/10 03:08:55;;;;;;;;;;;;;;;-144.99;100.00;52600.97;5066812;28;19975;-65
2022/02/10 03:11:23;;;;;;;;;;;;;;;-144.99;100.00;52639.69;5069314;28;20029;-67
2022/02/10 03:13:54;;;;;;;;;;;;;;;-144.99;100.00;52607.09;5077661;28;19998;-64
2022/02/10 03:19:21;;;;;;;;;;;;;;;-144.99;100.00;52651.94;5051090;28;20425;-65
2022/02/10 03:22:02;;;;;;;;;;;;;;;-144.99;100.00;52621.34;5070624;28;20451;-66
2022/02/10 04:00:33;;;;;;;;;;;;;;;-144.99;100.00;52619.31;5072427;28;20054;-62
2022/02/10 04:03:23;;;;;;;;;;;;;;;-144.99;100.00;52623.38;5072249;28;20059;-63
2022/02/10 04:06:22;;;;;;;;;;;;;;;-144.99;100.00;52639.69;5062839;28;20072;-63
2022/02/10 04:11:47;;;;;;;;;;;;;;;-144.99;100.00;52623.38;5071452;28;20012;-62
2022/02/10 04:14:24;;;;;;;;;;;;;;;-144.99;100.00;52603.00;5071842;28;20047;-62
2022/02/10 04:17:07;;;;;;;;;;;;;;;-144.99;100.00;52641.72;5071776;28;20070;-62
2022/02/10 04:19:51;;;;;;;;;;;;;;;-144.99;100.00;52629.50;5071994;28;20344;-62
2022/02/10 04:22:24;;;;;;;;;;;;;;;-144.99;100.00;52631.53;5071507;28;20331;-62
2022/02/10 04:25:15;;;;;;;;;;;;;;;-144.99;100.00;52635.63;5059495;28;19976;-62
2022/02/10 04:28:03;;;;;;;;;;;;;;;-144.99;100.00;52611.16;5071897;28;20061;-62
2022/02/10 04:30:51;;;;;;;;;;;;;;;-144.99;100.00;52635.63;5071382;28;19996;-64
2022/02/10 04:45:16;;;;;;;;;;;;;;;-144.99;100.00;52619.31;5057691;28;19978;-61
2022/02/10 04:56:20;;;;;;;;;;;;;;;-144.99;100.00;52643.78;4988719;28;19976;-62
2022/02/10 04:59:02;;;;;;;;;;;;;;;-144.99;100.00;52623.38;5045183;28;19976;-62
2022/02/10 05:01:43;;;;;;;;;;;;;;;-144.99;100.00;52639.69;5052560;28;19974;-62
2022/02/10 05:18:27;;;;;;;;;;;;;;;-144.99;100.00;52617.28;5052927;28;19978;-64
2022/02/10 05:34:38;;;;;;;;;;;;;;;-144.99;100.00;52627.47;5044855;28;20039;-64
2022/02/10 05:37:05;;;;;;;;;;;;;;;-144.99;100.00;52605.03;5066459;28;19980;-64
2022/02/10 05:39:37;;;;;;;;;;;;;;;-144.99;100.00;52619.31;5054620;28;20229;-64
2022/02/10 05:42:33;;;;;;;;;;;;;;;-144.99;100.00;52643.78;5052745;28;20006;-65
2022/02/10 05:45:08;;;;;;;;;;;;;;;-144.99;100.00;52590.78;5052772;28;19974;-65
2022/02/10 05:56:18;;;;;;;;;;;;;;;-144.99;100.00;52656.00;5134760;27;19970;-66
2022/02/10 06:02:18;;;;;;;;;;;;;;;-144.99;100.00;52623.38;5123287;27;19981;-66
2022/02/10 06:52:05;;;;;;;;;;;;;;;-144.99;100.00;52615.25;5084879;27;19993;-67
2022/02/10 06:54:46;;;;;;;;;;;;;;;-144.99;100.00;52680.47;5124654;27;20035;-67
2022/02/10 06:57:55;;;;;;;;;;;;;;;-144.99;100.00;52627.47;5144816;27;19968;-67
2022/02/10 07:06:08;;;;;;;;;;;;;;;-144.99;100.00;52623.38;5110427;27;19967;-67
2022/02/10 07:08:55;;;;;;;;;;;;;;;-144.99;100.00;52619.31;5113692;28;20045;-66
2022/02/10 07:14:31;;;;;;;;;;;;;;;-144.99;100.00;52660.09;5119097;27;19985;-65
2022/02/10 07:17:19;;;;;;;;;;;;;;;-144.99;100.00;52600.97;5126628;28;19961;-66
2022/02/10 07:50:17;;;;;;;;;;;;;;;-144.99;100.00;52619.31;5110060;27;19961;-65
2022/02/10 07:56:07;;;;;;;;;;;;;;;-144.99;100.00;52625.44;5110916;27;20031;-65
2022/02/10 08:27:01;;;;;;;;;;;;;;;-144.99;100.00;52647.84;5105853;28;20027;-66
2022/02/10 08:56:53;;;;;;;;;;;;;;;-144.99;100.00;52611.16;5124018;27;19989;-66
2022/02/10 09:02:41;;;;;;;;;;;;;;;-144.99;100.00;52617.28;5072607;28;19981;-67
2022/02/10 09:05:19;;;;;;;;;;;;;;;-144.99;100.00;52647.84;5109524;27;20059;-66
2022/02/10 09:08:12;;;;;;;;;;;;;;;-144.99;100.00;52594.84;5102790;28;20339;-66
2022/02/10 09:13:43;;;;;;;;;;;;;;;-144.99;100.00;52619.31;5113223;27;20073;-66
2022/02/10 09:19:15;;;;;;;;;;;;;;;-144.99;100.00;52611.16;5108150;28;19971;-66
2022/02/10 09:22:22;;;;;;;;;;;;;;;-144.99;100.00;52627.47;5107246;28;20429;-66
2022/02/10 09:58:17;;;;;;;;;;;;;;;-144.99;100.00;52578.53;5117183;28;19970;-66
2022/02/10 10:00:53;;;;;;;;;;;;;;;-144.99;100.00;52609.13;5107023;27;19955;-66
2022/02/10 10:03:30;;;;;;;;;;;;;;;-144.99;100.00;52603.00;5107672;28;20536;-66
2022/02/10 10:06:04;;;;;;;;;;;;;;;-144.99;100.00;52574.47;5090263;28;19968;-66
2022/02/10 10:08:40;;;;;;;;;;;;;;;-144.99;100.00;52566.31;5106360;28;20186;-66
2022/02/10 10:11:42;;;;;;;;;;;;;;;-144.99;100.00;52611.16;5097605;28;19974;-66
2022/02/10 10:14:16;;;;;;;;;;;;;;;-144.99;100.00;52619.31;5100068;28;20363;-66
2022/02/10 10:17:03;;;;;;;;;;;;;;;-144.99;100.00;52607.09;5106451;28;20160;-66
2022/02/10 10:19:50;;;;;;;;;;;;;;;-144.99;100.00;52582.63;5115291;28;19994;-66
2022/02/10 10:22:43;;;;;;;;;;;;;;;-144.99;100.00;52643.78;5106806;28;19982;-65
2022/02/10 10:25:35;;;;;;;;;;;;;;;-144.99;100.00;52607.09;5097666;28;20024;-66
2022/02/10 10:46:06;;;;;;;;;;;;;;;-144.99;100.00;52603.00;5111985;27;20066;-66
2022/02/10 10:50:54;;;;;;;;;;;;;;;-144.99;100.00;52574.47;5037674;28;19984;-66
2022/02/10 10:53:30;;;;;;;;;;;;;;;-144.99;100.00;52586.69;5044537;28;20328;-65
2022/02/10 10:56:03;;;;;;;;;;;;;;;-144.99;100.00;52611.16;5049084;28;20271;-66
2022/02/10 10:58:36;;;;;;;;;;;;;;;-144.99;99.99;52627.47;5049800;28;19975;-66
2022/02/10 11:03:39;;;;;;;;;;;;;;;-144.99;99.30;52574.47;5048151;28;20297;-67
2022/02/10 11:37:42;;;;;;;;;;;;;;;-144.99;90.09;52574.47;5051636;28;19978;-66
2022/02/10 11:40:15;;;;;;;;;;;;;;;-144.99;89.80;52586.69;5051553;28;19971;-66
2022/02/10 11:43:03;;;;;;;;;;;;;;;-144.99;84.51;52574.47;5047470;28;20002;-66
2022/02/10 11:46:07;;;;;;;;;;;;;;;-144.99;83.27;52523.50;5046870;28;19975;-68
2022/02/10 12:00:32;;;;;;;;;;;;;;;-144.99;75.99;52590.78;5046721;28;20110;-66
2022/02/10 13:23:29;;;;;;;;;;;;;;;-144.99;74.67;52611.16;5046732;28;20459;-70
2022/02/10 14:13:15;;;;;;;;;;;;;;;-144.99;71.55;52594.84;5046634;28;20009;-67
2022/02/10 14:18:26;;;;;;;;;;;;;;;-144.99;72.98;52704.94;5047635;28;20012;-65
2022/02/10 14:21:02;;;;;;;;;;;;;;;-144.99;72.77;52668.22;4699856;28;9999957;-66
2022/02/10 14:28:54;;;;;;;;;;;;;;;-144.99;77.27;52670.28;5046181;28;20125;-65
2022/02/10 14:31:21;;;;;;;;;;;;;;;-144.99;77.69;52631.53;5050185;28;20080;-66
2022/02/10 14:33:49;;;;;;;;;;;;;;;-144.99;77.69;52643.78;5050737;28;20001;-65
2022/02/10 14:36:29;;;;;;;;;;;;;;;-144.99;79.99;52688.63;5050921;28;19979;-67
2022/02/10 14:39:08;;;;;;;;;;;;;;;-144.99;79.54;52676.38;5044503;28;20104;-65
2022/02/10 15:18:05;;;;;;;;;;;;;;;-144.99;92.28;52686.59;5045822;28;20078;-65
2022/02/10 15:21:05;;;;;;;;;;;;;;;-144.99;92.21;52670.28;5043317;28;19977;-65
2022/02/10 15:56:46;;;;;;;;;;;;;;;-144.99;85.53;52658.03;5043392;28;19979;-65
2022/02/10 16:18:44;;;;;;;;;;;;;;;-144.99;84.48;52664.16;5038345;28;20031;-65
2022/02/10 16:21:11;;;;;;;;;;;;;;;-144.99;84.03;52709.00;5047785;28;19975;-65
2022/02/10 16:23:39;;;;;;;;;;;;;;;-144.99;84.20;52647.84;5046455;28;20045;-64
2022/02/10 16:26:11;;;;;;;;;;;;;;;-144.99;84.10;52668.22;5036790;28;20765;-64
2022/02/10 16:28:40;;;;;;;;;;;;;;;-144.99;84.11;52692.69;5045010;28;20105;-65
2022/02/10 16:31:07;;;;;;;;;;;;;;;-144.99;84.04;52684.53;5044739;28;19975;-64
2022/02/10 16:33:34;;;;;;;;;;;;;;;-144.99;84.40;52696.78;5041353;28;19995;-66
2022/02/10 16:36:00;;;;;;;;;;;;;;;-144.99;84.62;52660.09;5043324;28;19976;-65
2022/02/10 16:38:27;;;;;;;;;;;;;;;-144.99;84.83;52684.53;5040051;28;20463;-61
2022/02/10 16:40:55;;;;;;;;;;;;;;;-144.99;85.24;52688.63;5036079;28;19979;-59
2022/02/10 16:43:22;;;;;;;;;;;;;;;-144.99;85.75;52672.31;5043253;28;20003;-61
2022/02/10 16:45:48;;;;;;;;;;;;;;;-144.99;85.33;52704.94;5044883;28;19976;-61
2022/02/10 16:48:15;;;;;;;;;;;;;;;-144.99;86.37;52696.78;5042952;28;19996;-59
2022/02/10 16:50:44;;;;;;;;;;;;;;;-144.99;86.88;52704.94;5079234;22;20007;-62
2022/02/10 16:53:12;;;;;;;;;;;;;;;-144.99;87.20;52664.16;5080213;28;20017;-62
2022/02/10 16:55:45;;;;;;;;;;;;;;;-144.99;87.07;52684.53;5087741;28;19987;-65
2022/02/10 16:58:23;;;;;;;;;;;;;;;-144.99;87.75;52656.00;5086916;28;20319;-65
2022/02/10 17:03:48;;;;;;;;;;;;;;;-144.99;88.57;52651.94;5084512;28;20219;-64
2022/02/10 17:14:56;;;;;;;;;;;;;;;-144.99;88.74;52668.22;5076530;28;20049;-65
2022/02/10 17:17:39;;;;;;;;;;;;;;;-144.99;88.53;52696.78;5083038;28;20073;-65
2022/02/10 17:20:25;;;;;;;;;;;;;;;-144.99;89.56;52700.84;5085977;28;20274;-64
2022/02/10 17:25:38;;;;;;;;;;;;;;;-144.99;89.53;52688.63;5086842;28;20086;-66
2022/02/10 17:28:07;;;;;;;;;;;;;;;-144.99;89.74;52700.84;5087268;28;19980;-66
2022/02/10 17:31:03;;;;;;;;;;;;;;;-144.99;89.81;52688.63;5086095;28;20512;-66
2022/02/10 17:33:34;;;;;;;;;;;;;;;-144.99;89.82;52729.38;5085773;28;19999;-65
2022/02/10 17:36:15;;;;;;;;;;;;;;;-144.99;90.20;52660.09;5085870;28;19986;-63
2022/02/10 17:44:37;;;;;;;;;;;;;;;-144.99;89.64;52674.34;5086600;28;19998;-65
2022/02/10 17:52:45;;;;;;;;;;;;;;;-144.99;90.37;52709.00;5085140;28;19986;-66
2022/02/10 17:55:12;;;;;;;;;;;;;;;-144.99;90.18;52696.78;5086020;28;20023;-65
2022/02/10 17:57:38;;;;;;;;;;;;;;;-144.99;90.83;52721.22;5086539;28;19977;-65
2022/02/10 18:00:06;;;;;;;;;;;;;;;-144.99;91.58;52684.53;5091614;28;20424;-66
2022/02/10 18:02:34;;;;;;;;;;;;;;;-144.99;92.02;52688.63;5086012;28;19958;-64
2022/02/10 18:05:02;;;;;;;;;;;;;;;-144.99;92.78;52764.03;5078082;28;20092;-65
2022/02/10 18:07:29;;;;;;;;;;;;;;;-144.99;92.42;52727.34;5078099;28;20025;-65
2022/02/10 18:10:24;;;;;;;;;;;;;;;-144.99;92.77;52651.94;5083622;28;20426;-65
2022/02/10 18:15:44;;;;;;;;;;;;;;;-144.99;91.04;52696.78;5067042;28;19974;-64
2022/02/10 18:18:20;;;;;;;;;;;;;;;-144.99;90.94;52676.38;5082497;28;20317;-63
2022/02/10 18:20:53;;;;;;;;;;;;;;;-144.99;91.07;52651.94;5085387;28;19974;-65
2022/02/10 18:23:23;;;;;;;;;;;;;;;-144.99;91.02;52733.47;5085170;28;19990;-65
2022/02/10 18:25:57;;;;;;;;;;;;;;;-144.99;90.62;52664.16;5085008;28;19981;-64
2022/02/10 18:28:36;;;;;;;;;;;;;;;-144.99;90.17;52698.81;5086247;28;20039;-63
2022/02/10 18:34:24;;;;;;;;;;;;;;;-144.99;89.04;52723.28;5085854;28;20366;-67
2022/02/10 19:02:04;;;;;;;;;;;;;;;-144.99;89.41;52651.94;5038046;28;19983;-64
2022/02/10 19:07:23;;;;;;;;;;;;;;;-144.99;90.05;52709.00;5089170;28;19983;-64
2022/02/10 19:09:54;;;;;;;;;;;;;;;-144.99;90.79;52682.50;5083955;28;19980;-64
2022/02/10 19:12:25;;;;;;;;;;;;;;;-144.99;90.91;52733.47;5090737;28;19976;-66
2022/02/10 19:14:55;;;;;;;;;;;;;;;-144.99;91.11;52713.09;5089453;28;19996;-64
2022/02/10 19:17:22;;;;;;;;;;;;;;;-144.99;91.61;52713.09;5089746;28;19989;-63
2022/02/10 19:19:48;;;;;;;;;;;;;;;-144.99;91.51;52741.63;5088727;28;19972;-65
2022/02/10 19:22:16;;;;;;;;;;;;;;;-144.99;92.09;52670.28;5089397;28;19988;-65
2022/02/10 19:24:43;;;;;;;;;;;;;;;-144.99;92.03;52692.69;5088543;28;19992;-65
2022/02/10 19:27:09;;;;;;;;;;;;;;;-144.99;92.45;52721.22;5089254;28;19987;-65
2022/02/10 19:29:36;;;;;;;;;;;;;;;-144.99;92.91;52704.94;5088992;28;20475;-65
2022/02/10 19:32:04;;;;;;;;;;;;;;;-144.99;92.80;52688.63;5088889;28;19983;-64
2022/02/10 19:34:34;;;;;;;;;;;;;;;-144.99;92.89;52704.94;5088470;28;20003;-65
2022/02/10 19:37:00;;;;;;;;;;;;;;;-144.99;92.72;52729.38;5088404;28;19983;-66
2022/02/10 19:39:28;;;;;;;;;;;;;;;-144.99;93.09;52713.09;5089246;28;20455;-65
2022/02/10 19:41:55;;;;;;;;;;;;;;;-144.99;93.63;52709.00;5088939;28;20283;-64
2022/02/10 19:44:21;;;;;;;;;;;;;;;-144.99;94.10;52688.63;5088637;28;20005;-64
2022/02/10 19:46:48;;;;;;;;;;;;;;;-144.99;93.61;52690.66;5089007;28;19990;-63
2022/02/10 19:49:19;;;;;;;;;;;;;;;-144.99;93.49;52672.31;5084790;28;19971;-63
2022/02/10 19:51:46;;;;;;;;;;;;;;;-144.99;95.08;52717.16;5085410;28;19994;-64
2022/02/10 19:54:14;;;;;;;;;;;;;;;-144.99;94.67;52688.63;5084898;28;20102;-64
2022/02/10 19:56:42;;;;;;;;;;;;;;;-144.99;96.31;52692.69;5086735;28;19976;-64
2022/02/10 19:59:15;;;;;;;;;;;;;;;-144.99;96.02;52721.22;5088804;28;19981;-63
2022/02/10 20:01:41;;;;;;;;;;;;;;;-144.99;96.94;52686.59;5089024;28;19989;-64
2022/02/10 20:04:09;;;;;;;;;;;;;;;-144.99;97.63;52674.34;5088722;28;19995;-64
2022/02/10 20:06:36;;;;;;;;;;;;;;;-144.99;97.21;52717.16;5088054;28;19978;-63
2022/02/10 20:09:03;;;;;;;;;;;;;;;-144.99;97.18;52709.00;5088497;28;20089;-63
2022/02/10 20:11:29;;;;;;;;;;;;;;;-144.99;96.91;52668.22;5088485;28;20571;-63
2022/02/10 20:13:57;;;;;;;;;;;;;;;-144.99;96.86;52717.16;5087518;28;20480;-63
2022/02/10 20:16:23;;;;;;;;;;;;;;;-144.99;96.71;52700.84;5087729;28;19985;-64
2022/02/10 20:18:49;;;;;;;;;;;;;;;-144.99;95.37;52711.03;5088530;28;19979;-65
2022/02/10 20:21:16;;;;;;;;;;;;;;;-144.99;95.65;52696.78;5088255;28;20063;-64
2022/02/10 20:23:43;;;;;;;;;;;;;;;-144.99;95.41;52709.00;5088436;28;19982;-65
2022/02/10 20:26:10;;;;;;;;;;;;;;;-144.99;95.67;52713.09;5088085;28;19976;-64
2022/02/10 20:28:36;;;;;;;;;;;;;;;-144.99;95.55;52656.00;5088320;28;20319;-63
2022/02/10 20:31:04;;;;;;;;;;;;;;;-144.99;96.01;52721.22;5088392;28;19951;-63
2022/02/10 20:33:32;;;;;;;;;;;;;;;-144.99;95.54;52696.78;5087567;28;19996;-64
2022/02/10 20:36:00;;;;;;;;;;;;;;;-144.99;96.07;52692.69;5087418;28;20001;-65
2022/02/10 20:38:28;;;;;;;;;;;;;;;-144.99;95.93;52680.47;5084984;28;19979;-64
2022/02/10 20:40:59;;;;;;;;;;;;;;;-144.99;95.20;52717.16;5088574;28;19985;-64
2022/02/10 20:43:26;;;;;;;;;;;;;;;-144.99;94.89;52684.53;5087245;28;19990;-64
2022/02/10 20:45:56;;;;;;;;;;;;;;;-144.99;95.08;52696.78;5086222;28;19978;-63
2022/02/10 20:48:27;;;;;;;;;;;;;;;-144.99;95.37;52688.63;5088111;28;20009;-67
2022/02/10 20:50:56;;;;;;;;;;;;;;;-144.99;94.99;52668.22;5086696;28;20414;-64
2022/02/10 20:53:24;;;;;;;;;;;;;;;-144.99;94.27;52672.31;5078130;28;20113;-65
2022/02/10 20:55:50;;;;;;;;;;;;;;;-144.99;94.13;52694.72;5083574;28;20367;-63
2022/02/10 20:58:19;;;;;;;;;;;;;;;-144.99;94.55;52639.69;5087919;28;20410;-63
2022/02/10 21:00:46;;;;;;;;;;;;;;;-144.99;94.48;52680.47;5087731;28;19983;-59
2022/02/10 21:03:14;;;;;;;;;;;;;;;-144.99;94.11;52653.97;5087976;28;20040;-59
2022/02/10 21:05:43;;;;;;;;;;;;;;;-144.99;94.88;52702.88;5086847;28;20400;-57
2022/02/10 21:08:14;;;;;;;;;;;;;;;-144.99;94.39;52694.72;5087598;28;19981;-58
2022/02/10 21:10:41;;;;;;;;;;;;;;;-144.99;95.21;52692.69;5087569;28;19988;-59
2022/02/10 21:13:10;;;;;;;;;;;;;;;-144.99;95.53;52721.22;5087630;28;20035;-59
2022/02/10 21:15:41;;;;;;;;;;;;;;;-144.99;95.77;52717.16;5086894;28;20091;-61
2022/02/10 21:18:08;;;;;;;;;;;;;;;-144.99;95.84;52692.69;5086938;28;20356;-62
2022/02/10 21:20:36;;;;;;;;;;;;;;;-144.99;96.92;52711.03;5086270;28;19982;-60
2022/02/10 21:23:13;;;;;;;;;;;;;;;-144.99;97.00;52721.22;5086906;28;19994;-62
2022/02/10 21:25:40;;;;;;;;;;;;;;;-144.99;97.69;52684.53;5087605;28;20030;-61
2022/02/10 21:28:15;;;;;;;;;;;;;;;-144.99;97.04;52709.00;5086050;28;20371;-60
2022/02/10 21:30:41;;;;;;;;;;;;;;;-144.99;97.18;52696.78;5085540;28;19974;-62
2022/02/10 21:33:14;;;;;;;;;;;;;;;-144.99;96.10;52723.28;5086408;28;19995;-59
2022/02/10 21:36:00;;;;;;;;;;;;;;;-144.99;96.35;52682.50;5086595;28;20074;-64
2022/02/10 21:38:30;;;;;;;;;;;;;;;-144.99;96.74;52688.63;5086555;28;19983;-64
2022/02/10 21:41:24;;;;;;;;;;;;;;;-144.99;96.69;52702.88;5086856;28;19987;-64
2022/02/10 21:55:21;;;;;;;;;;;;;;;-144.99;97.14;52713.09;5080257;28;19989;-65
2022/02/10 21:58:39;;;;;;;;;;;;;;;-144.99;97.05;52676.38;5086409;28;19985;-65
2022/02/10 22:06:44;;;;;;;;;;;;;;;-144.99;97.53;52704.94;5041012;28;20000;-65
2022/02/10 22:09:23;;;;;;;;;;;;;;;-144.99;97.59;52680.47;5086382;28;20062;-61
2022/02/10 22:12:08;;;;;;;;;;;;;;;-144.99;97.74;52617.28;5086382;28;19976;-60
2022/02/10 22:17:56;;;;;;;;;;;;;;;-144.99;97.40;52696.78;5082071;28;20185;-61
2022/02/10 22:20:29;;;;;;;;;;;;;;;-144.99;96.98;52713.09;5079232;28;20377;-62
2022/02/10 22:23:03;;;;;;;;;;;;;;;-144.99;97.45;52688.63;5082669;28;19998;-62
2022/02/10 22:25:30;;;;;;;;;;;;;;;-144.99;97.73;52713.09;5086493;28;20000;-62
2022/02/10 22:28:05;;;;;;;;;;;;;;;-144.99;97.68;52692.69;5086204;28;20000;-62
2022/02/10 22:30:43;;;;;;;;;;;;;;;-144.99;97.57;52700.84;5085933;28;19987;-61
2022/02/10 22:33:20;;;;;;;;;;;;;;;-144.99;97.85;52643.78;5085910;28;19996;-62
2022/02/10 22:35:49;;;;;;;;;;;;;;;-144.99;97.80;52672.31;5089357;28;19982;-61
2022/02/10 22:38:15;;;;;;;;;;;;;;;-144.99;97.97;52686.59;5089733;28;19978;-62
2022/02/10 22:40:58;;;;;;;;;;;;;;;-144.99;98.14;52678.44;5090323;28;20264;-64
2022/02/10 22:43:26;;;;;;;;;;;;;;;-144.99;98.49;52692.69;5089621;28;20010;-65
2022/02/10 22:45:52;;;;;;;;;;;;;;;-144.99;98.96;52684.53;5089313;28;20228;-64
2022/02/10 22:48:18;;;;;;;;;;;;;;;-144.99;99.00;52688.63;5090081;28;20751;-65
2022/02/10 22:50:45;;;;;;;;;;;;;;;-144.99;99.19;52743.66;5104588;22;19986;-62
2022/02/10 22:53:11;;;;;;;;;;;;;;;-144.99;99.03;52688.63;5067826;28;20002;-62
2022/02/10 22:55:38;;;;;;;;;;;;;;;-144.99;99.86;52688.63;5069393;28;19985;-62
2022/02/10 22:58:04;;;;;;;;;;;;;;;-144.99;99.21;52735.50;5070918;28;19988;-62
2022/02/10 23:00:33;;;;;;;;;;;;;;;-144.99;98.70;52686.59;5070665;28;19980;-63
2022/02/10 23:02:59;;;;;;;;;;;;;;;-144.99;98.23;52713.09;5070337;28;20007;-64
2022/02/10 23:05:26;;;;;;;;;;;;;;;-144.99;97.95;52709.00;5069876;28;19996;-64
2022/02/10 23:07:56;;;;;;;;;;;;;;;-144.99;98.09;52692.69;5069981;28;19981;-64
2022/02/10 23:13:07;;;;;;;;;;;;;;;-144.99;98.23;52696.78;5067400;28;19999;-64
2022/02/10 23:15:37;;;;;;;;;;;;;;;-144.99;98.72;52698.81;5069606;28;19976;-61
2022/02/10 23:18:05;;;;;;;;;;;;;;;-144.99;98.71;52713.09;5070274;28;19980;-60
2022/02/10 23:20:31;;;;;;;;;;;;;;;-144.99;98.39;52698.81;5069351;28;20364;-59
2022/02/10 23:22:58;;;;;;;;;;;;;;;-144.99;99.73;52698.81;5064491;28;20001;-59
2022/02/10 23:25:26;;;;;;;;;;;;;;;-144.99;98.87;52688.63;5070499;28;19999;-57
2022/02/10 23:27:52;;;;;;;;;;;;;;;-144.99;99.95;52715.13;5070128;28;20440;-59
2022/02/10 23:30:21;;;;;;;;;;;;;;;-144.99;99.68;52692.69;5070897;28;19975;-58
2022/02/10 23:32:50;;;;;;;;;;;;;;;-144.99;99.84;52709.00;4719111;28;10000586;-62
2022/02/10 23:35:47;;;;;;;;;;;;;;;-144.99;99.66;52702.88;5069023;28;19990;-60
2022/02/10 23:38:03;;;;;;;;;;;;;;;-144.99;98.89;52692.69;5068081;28;20098;-60
2022/02/10 23:40:30;;;;;;;;;;;;;;;-144.99;99.33;52721.22;5069238;28;20493;-60
2022/02/10 23:42:57;;;;;;;;;;;;;;;-144.99;99.29;52704.94;5070419;28;19995;-58
2022/02/10 23:45:26;;;;;;;;;;;;;;;-144.99;99.97;52725.31;5069874;28;20490;-58
2022/02/10 23:47:54;;;;;;;;;;;;;;;-144.99;99.64;52704.94;5068090;28;19975;-58
2022/02/10 23:50:26;;;;;;;;;;;;;;;-144.99;99.31;52692.69;5069287;28;20022;-59
2022/02/10 23:52:55;;;;;;;;;;;;;;;-144.99;99.41;52757.94;5072860;28;20069;-62
2022/02/10 23:55:29;;;;;;;;;;;;;;;-144.99;99.70;52684.53;5072629;28;19986;-58
2022/02/10 23:58:03;;;;;;;;;;;;;;;-144.99;100.00;52717.16;5072399;28;19979;-58
